Time;durP1;ratioP1;P1;durP2;ratioP2;P2;SDS_P1;SDS_P2;PMS_P1;PMS_P2;Temp;Humidity;BMP_temperature;BMP_pressure;BME280_temperature;BME280_humidity;BME280_pressure;Samples;Min_cycle;Max_cycle;Signal;HPM_P1;HPM_P2
2022/09/05 00:01:31;;;;;;;;;;;20.40;99.90;;;;;;5033669;28;20419;-80
2022/09/05 00:04:04;;;;;;;;;;;20.40;99.90;;;;;;5033673;28;19909;-80
2022/09/05 00:06:33;;;;;;;;;;;20.40;99.90;;;;;;5032859;28;19913;-80
2022/09/05 00:09:12;;;;;;;;;;;20.40;99.90;;;;;;5033496;28;19909;-80
2022/09/05 00:11:44;;;;;;;;;;;20.40;99.90;;;;;;5033300;28;19909;-80
2022/09/05 00:14:13;;;;;;;;;;;20.40;99.90;;;;;;5033494;28;20426;-80
2022/09/05 00:16:44;;;;;;;;;;;20.40;99.90;;;;;;5032498;28;19917;-79
2022/09/05 00:19:18;;;;;;;;;;;20.40;99.90;;;;;;5033039;28;20014;-80
2022/09/05 00:21:50;;;;;;;;;;;20.50;99.90;;;;;;5033162;28;19913;-80
2022/09/05 00:24:42;;;;;;;;;;;20.50;99.90;;;;;;5033262;28;20257;-80
2022/09/05 00:27:10;;;;;;;;;;;20.50;99.90;;;;;;5032608;28;19913;-80
2022/09/05 00:29:36;;;;;;;;;;;20.60;99.90;;;;;;5033086;28;20360;-80
2022/09/05 00:32:07;;;;;;;;;;;20.50;99.90;;;;;;5033064;28;19915;-80
2022/09/05 00:34:50;;;;;;;;;;;20.60;99.90;;;;;;5032861;28;20020;-79
2022/09/05 00:37:27;;;;;;;;;;;20.60;99.90;;;;;;5032359;28;20047;-79
2022/09/05 00:39:54;;;;;;;;;;;20.50;99.90;;;;;;5032868;28;20372;-80
2022/09/05 00:42:20;;;;;;;;;;;20.50;99.90;;;;;;5032888;28;19909;-80
2022/09/05 00:44:52;;;;;;;;;;;20.50;99.90;;;;;;5032728;28;19909;-80
2022/09/05 00:47:37;;;;;;;;;;;20.50;99.90;;;;;;5032036;28;19920;-79
2022/09/05 00:50:07;;;;;;;;;;;20.40;99.90;;;;;;5031749;28;20357;-79
2022/09/05 00:52:40;;;;;;;;;;;20.40;99.90;;;;;;5031427;28;19909;-80
2022/09/05 00:55:22;;;;;;;;;;;20.40;99.90;;;;;;5032572;28;19962;-79
2022/09/05 00:58:16;;;;;;;;;;;20.40;99.90;;;;;;5032179;28;19909;-80
2022/09/05 01:00:55;;;;;;;;;;;20.30;99.90;;;;;;4996584;28;19910;-79
2022/09/05 01:03:27;;;;;;;;;;;20.30;99.90;;;;;;5031372;28;19998;-80
2022/09/05 01:05:52;;;;;;;;;;;20.30;99.90;;;;;;5031852;28;19917;-79
2022/09/05 01:08:24;;;;;;;;;;;20.30;99.90;;;;;;5031253;28;19916;-79
2022/09/05 01:11:02;;;;;;;;;;;20.30;99.90;;;;;;5031223;28;19999;-80
2022/09/05 01:13:38;;;;;;;;;;;20.30;99.90;;;;;;5032814;28;19916;-79
2022/09/05 01:16:08;;;;;;;;;;;20.20;99.90;;;;;;5031720;28;19923;-79
2022/09/05 01:18:38;;;;;;;;;;;20.30;99.90;;;;;;5032320;28;19909;-79
2022/09/05 01:21:33;;;;;;;;;;;20.30;99.90;;;;;;5031095;28;19909;-79
2022/09/05 01:24:13;;;;;;;;;;;20.30;99.90;;;;;;5012868;28;20009;-80
2022/09/05 01:26:39;;;;;;;;;;;20.30;99.90;;;;;;5030514;28;19917;-79
2022/09/05 01:29:07;;;;;;;;;;;20.20;99.90;;;;;;5030959;28;20403;-79
2022/09/05 01:31:33;;;;;;;;;;;20.20;99.90;;;;;;5031025;28;19916;-79
2022/09/05 01:34:17;;;;;;;;;;;20.20;99.90;;;;;;5032189;28;19913;-79
2022/09/05 01:36:51;;;;;;;;;;;20.10;99.90;;;;;;5031745;28;19909;-80
2022/09/05 01:39:36;;;;;;;;;;;20.10;99.90;;;;;;5030978;28;19909;-79
2022/09/05 01:42:01;;;;;;;;;;;20.10;99.90;;;;;;5032094;28;19909;-79
2022/09/05 01:44:40;;;;;;;;;;;20.10;99.90;;;;;;5032147;28;19916;-79
2022/09/05 01:47:24;;;;;;;;;;;20.10;99.90;;;;;;5031534;28;20285;-80
2022/09/05 01:50:08;;;;;;;;;;;20.10;99.90;;;;;;5030857;28;19913;-80
2022/09/05 01:52:52;;;;;;;;;;;20.10;99.90;;;;;;5032045;28;19948;-80
2022/09/05 01:55:18;;;;;;;;;;;20.10;99.90;;;;;;5031973;28;19909;-79
2022/09/05 01:57:55;;;;;;;;;;;20.10;99.90;;;;;;5031535;28;19996;-80
2022/09/05 02:00:22;;;;;;;;;;;20.10;99.90;;;;;;5035623;28;19909;-80
2022/09/05 02:03:06;;;;;;;;;;;20.10;99.90;;;;;;5035876;28;19909;-79
2022/09/05 02:05:46;;;;;;;;;;;20.10;99.90;;;;;;5035443;28;20277;-79
2022/09/05 02:08:32;;;;;;;;;;;20.10;99.90;;;;;;5035724;28;20327;-80
2022/09/05 02:11:05;;;;;;;;;;;20.10;99.90;;;;;;5035570;28;19909;-79
2022/09/05 02:13:34;;;;;;;;;;;20.10;99.90;;;;;;5035592;28;19913;-79
2022/09/05 02:15:59;;;;;;;;;;;20.10;99.90;;;;;;5033546;28;19921;-79
2022/09/05 02:18:36;;;;;;;;;;;20.10;99.90;;;;;;5035106;28;19987;-79
2022/09/05 02:21:07;;;;;;;;;;;20.10;99.90;;;;;;5034038;28;20447;-79
2022/09/05 02:23:42;;;;;;;;;;;20.10;99.90;;;;;;5035485;28;19909;-79
2022/09/05 02:26:22;;;;;;;;;;;20.10;99.90;;;;;;5034685;28;19917;-79
2022/09/05 02:29:02;;;;;;;;;;;20.00;99.90;;;;;;5035346;28;19967;-79
2022/09/05 02:31:34;;;;;;;;;;;20.00;99.90;;;;;;5035168;28;19913;-79
2022/09/05 02:34:09;;;;;;;;;;;20.00;99.90;;;;;;5035228;28;19913;-79
2022/09/05 02:36:44;;;;;;;;;;;19.90;99.90;;;;;;5034423;28;19916;-79
2022/09/05 02:39:16;;;;;;;;;;;19.90;99.90;;;;;;5035031;28;19910;-79
2022/09/05 02:41:51;;;;;;;;;;;19.90;99.90;;;;;;5035039;28;19917;-79
2022/09/05 02:44:20;;;;;;;;;;;19.90;99.90;;;;;;5033729;28;20426;-79
2022/09/05 02:46:51;;;;;;;;;;;19.90;99.90;;;;;;5033007;28;20368;-80
2022/09/05 02:49:20;;;;;;;;;;;19.90;99.90;;;;;;5034988;28;20432;-80
2022/09/05 02:52:06;;;;;;;;;;;19.90;99.90;;;;;;5033670;28;19916;-80
2022/09/05 02:54:34;;;;;;;;;;;19.90;99.90;;;;;;5034792;28;19916;-79
2022/09/05 02:57:16;;;;;;;;;;;19.90;99.90;;;;;;5034748;28;19963;-79
2022/09/05 02:59:45;;;;;;;;;;;19.90;99.90;;;;;;5033686;28;19949;-80
2022/09/05 03:02:16;;;;;;;;;;;19.80;99.90;;;;;;5033427;28;19988;-80
2022/09/05 03:04:51;;;;;;;;;;;19.80;99.90;;;;;;5033401;28;19909;-80
2022/09/05 03:07:24;;;;;;;;;;;19.80;99.90;;;;;;5032875;28;19913;-80
2022/09/05 03:09:54;;;;;;;;;;;19.70;99.90;;;;;;5033320;28;19913;-80
2022/09/05 03:12:22;;;;;;;;;;;19.70;99.90;;;;;;5034576;28;19913;-79
2022/09/05 03:14:57;;;;;;;;;;;19.70;99.90;;;;;;5034546;28;19967;-80
2022/09/05 03:17:31;;;;;;;;;;;19.60;99.90;;;;;;5033642;28;20004;-80
2022/09/05 03:20:08;;;;;;;;;;;19.60;99.90;;;;;;5034557;28;19966;-80
2022/09/05 03:22:46;;;;;;;;;;;19.60;99.90;;;;;;5034389;28;19909;-80
2022/09/05 03:25:17;;;;;;;;;;;19.60;99.90;;;;;;5034023;28;20428;-79
2022/09/05 03:27:55;;;;;;;;;;;19.60;99.90;;;;;;5033754;28;19963;-79
2022/09/05 03:30:21;;;;;;;;;;;19.50;99.90;;;;;;5033075;28;20020;-79
2022/09/05 03:32:47;;;;;;;;;;;19.50;99.90;;;;;;5032969;28;19920;-80
2022/09/05 03:35:32;;;;;;;;;;;19.50;99.90;;;;;;5034029;28;20380;-79
2022/09/05 03:38:23;;;;;;;;;;;19.50;99.90;;;;;;5033753;28;20005;-79
2022/09/05 03:40:48;;;;;;;;;;;19.50;99.90;;;;;;5025540;28;19921;-79
2022/09/05 03:43:33;;;;;;;;;;;19.40;99.90;;;;;;5034017;28;19909;-80
2022/09/05 03:46:08;;;;;;;;;;;19.40;99.90;;;;;;5033352;28;20277;-79
2022/09/05 03:48:52;;;;;;;;;;;19.40;99.90;;;;;;5034043;28;19909;-80
2022/09/05 03:51:28;;;;;;;;;;;19.40;99.90;;;;;;5033836;28;19909;-79
2022/09/05 03:54:12;;;;;;;;;;;19.40;99.90;;;;;;5033894;28;19909;-80
2022/09/05 03:56:53;;;;;;;;;;;19.40;99.90;;;;;;5033221;28;20315;-80
2022/09/05 03:59:40;;;;;;;;;;;19.30;99.90;;;;;;5033782;28;19992;-79
2022/09/05 04:02:08;;;;;;;;;;;19.30;99.90;;;;;;5033783;28;19916;-79
2022/09/05 04:04:33;;;;;;;;;;;19.30;99.90;;;;;;5033596;28;19916;-79
2022/09/05 04:07:01;;;;;;;;;;;19.20;99.90;;;;;;5031713;28;20370;-80
2022/09/05 04:09:50;;;;;;;;;;;19.20;99.90;;;;;;5033642;28;19913;-79
2022/09/05 04:12:17;;;;;;;;;;;19.20;99.90;;;;;;5033243;28;19913;-80
2022/09/05 04:14:55;;;;;;;;;;;19.20;99.90;;;;;;5033365;28;19910;-80
2022/09/05 04:17:29;;;;;;;;;;;19.20;99.90;;;;;;5033296;28;19917;-80
2022/09/05 04:20:03;;;;;;;;;;;19.10;99.90;;;;;;5033360;28;19913;-80
2022/09/05 04:22:41;;;;;;;;;;;19.10;99.90;;;;;;5032844;28;19999;-79
2022/09/05 04:25:14;;;;;;;;;;;19.10;99.90;;;;;;5032978;28;19916;-79
2022/09/05 04:27:45;;;;;;;;;;;19.00;99.90;;;;;;5032628;28;19919;-80
2022/09/05 04:30:16;;;;;;;;;;;19.00;99.90;;;;;;5033054;28;19955;-80
2022/09/05 04:32:45;;;;;;;;;;;18.90;99.90;;;;;;5033246;28;19909;-80
2022/09/05 04:35:13;;;;;;;;;;;18.90;99.90;;;;;;5031588;28;19909;-80
2022/09/05 04:37:45;;;;;;;;;;;18.90;99.90;;;;;;5031213;28;19919;-79
2022/09/05 04:40:29;;;;;;;;;;;18.90;99.90;;;;;;5031533;28;19909;-79
2022/09/05 04:42:57;;;;;;;;;;;18.80;99.90;;;;;;5031797;28;20321;-79
2022/09/05 04:45:22;;;;;;;;;;;18.80;99.90;;;;;;5032629;28;19909;-80
2022/09/05 04:47:51;;;;;;;;;;;18.80;99.90;;;;;;5032493;28;19916;-80
2022/09/05 04:50:19;;;;;;;;;;;18.80;99.90;;;;;;5031558;28;19967;-79
2022/09/05 04:52:53;;;;;;;;;;;18.70;99.90;;;;;;5032725;28;20292;-79
2022/09/05 04:55:26;;;;;;;;;;;18.80;99.90;;;;;;5031193;28;19913;-80
2022/09/05 04:57:52;;;;;;;;;;;18.70;99.90;;;;;;5032269;28;19952;-79
2022/09/05 05:00:36;;;;;;;;;;;18.70;99.90;;;;;;5032448;28;20369;-79
2022/09/05 05:03:12;;;;;;;;;;;18.70;99.90;;;;;;5031317;28;19910;-79
2022/09/05 05:05:59;;;;;;;;;;;18.70;99.90;;;;;;5031824;28;19957;-79
2022/09/05 05:08:28;;;;;;;;;;;18.70;99.90;;;;;;5032311;28;19914;-79
2022/09/05 05:10:56;;;;;;;;;;;18.70;99.90;;;;;;5031262;28;19916;-79
2022/09/05 05:13:24;;;;;;;;;;;18.70;99.90;;;;;;5032480;28;19909;-79
2022/09/05 05:15:55;;;;;;;;;;;18.70;99.90;;;;;;5031624;28;19925;-79
2022/09/05 05:18:21;;;;;;;;;;;18.70;99.90;;;;;;5032547;28;19992;-79
2022/09/05 05:20:49;;;;;;;;;;;18.70;99.90;;;;;;5032429;28;19945;-79
2022/09/05 05:23:16;;;;;;;;;;;18.70;99.90;;;;;;5032438;28;19945;-80
2022/09/05 05:25:46;;;;;;;;;;;18.70;99.90;;;;;;5031653;28;19920;-80
2022/09/05 05:28:13;;;;;;;;;;;18.80;99.90;;;;;;5032298;28;19913;-80
2022/09/05 05:30:39;;;;;;;;;;;18.80;99.90;;;;;;5032402;28;19909;-80
2022/09/05 05:33:28;;;;;;;;;;;18.70;99.90;;;;;;5031234;28;19913;-80
2022/09/05 05:35:58;;;;;;;;;;;18.80;99.90;;;;;;5032561;28;20476;-80
2022/09/05 05:38:44;;;;;;;;;;;18.80;99.90;;;;;;5036323;28;20407;-80
2022/09/05 05:41:20;;;;;;;;;;;18.80;99.90;;;;;;5035964;28;20273;-80
2022/09/05 05:43:47;;;;;;;;;;;18.90;99.90;;;;;;5036222;28;19909;-79
2022/09/05 05:46:22;;;;;;;;;;;18.90;99.90;;;;;;5035528;28;20387;-80
2022/09/05 05:48:48;;;;;;;;;;;19.00;99.90;;;;;;5036189;28;20004;-80
2022/09/05 05:51:14;;;;;;;;;;;19.10;99.90;;;;;;5036108;28;20288;-80
2022/09/05 05:53:48;;;;;;;;;;;19.20;99.90;;;;;;5036052;28;19909;-80
2022/09/05 05:56:32;;;;;;;;;;;19.30;99.90;;;;;;5035319;28;19916;-80
2022/09/05 05:58:58;;;;;;;;;;;19.40;99.90;;;;;;5035999;28;19909;-80
2022/09/05 06:02:03;;;;;;;;;;;19.40;99.90;;;;;;5036061;28;19909;-80
2022/09/05 06:04:31;;;;;;;;;;;19.50;99.90;;;;;;4997323;28;20490;-80
2022/09/05 06:06:56;;;;;;;;;;;19.60;99.90;;;;;;5013066;28;20008;-80
2022/09/05 06:09:41;;;;;;;;;;;19.70;99.90;;;;;;5013606;28;20008;-80
2022/09/05 06:12:44;;;;;;;;;;;19.80;99.90;;;;;;5035677;28;20324;-80
2022/09/05 06:15:25;;;;;;;;;;;19.90;99.90;;;;;;5013380;28;19916;-80
2022/09/05 06:18:09;;;;;;;;;;;20.00;99.90;;;;;;4997011;28;20380;-80
2022/09/05 06:20:38;;;;;;;;;;;20.00;99.90;;;;;;5028802;28;19917;-80
2022/09/05 06:23:04;;;;;;;;;;;20.20;99.90;;;;;;5035531;28;19916;-80
2022/09/05 06:25:44;;;;;;;;;;;20.30;99.90;;;;;;5035182;28;19913;-80
2022/09/05 06:28:21;;;;;;;;;;;20.50;99.90;;;;;;5035522;28;20365;-80
2022/09/05 06:30:50;;;;;;;;;;;20.50;99.90;;;;;;5034074;28;19931;-80
2022/09/05 06:33:39;;;;;;;;;;;20.70;99.90;;;;;;5033966;28;19909;-80
2022/09/05 06:36:07;;;;;;;;;;;20.80;99.90;;;;;;5034740;28;19995;-80
2022/09/05 06:38:42;;;;;;;;;;;20.90;99.90;;;;;;5035287;28;20085;-79
2022/09/05 06:41:22;;;;;;;;;;;21.00;99.90;;;;;;5035073;28;19909;-80
2022/09/05 06:44:23;;;;;;;;;;;21.10;99.90;;;;;;5033834;28;19913;-81
2022/09/05 06:46:51;;;;;;;;;;;21.20;99.90;;;;;;4995744;28;20048;-81
2022/09/05 06:49:19;;;;;;;;;;;21.30;99.90;;;;;;5030838;28;20007;-80
2022/09/05 06:52:00;;;;;;;;;;;21.40;99.90;;;;;;5034961;28;19909;-80
2022/09/05 06:54:29;;;;;;;;;;;21.50;99.90;;;;;;5034722;28;19910;-82
2022/09/05 06:57:07;;;;;;;;;;;21.60;99.90;;;;;;5023380;28;19978;-82
2022/09/05 06:59:51;;;;;;;;;;;21.70;99.90;;;;;;5019751;28;19909;-82
2022/09/05 07:02:16;;;;;;;;;;;21.90;99.90;;;;;;5032459;28;19999;-82
2022/09/05 07:05:01;;;;;;;;;;;22.00;99.90;;;;;;5033926;28;19998;-83
2022/09/05 07:07:29;;;;;;;;;;;22.10;99.90;;;;;;5019664;28;19914;-80
2022/09/05 07:09:58;;;;;;;;;;;22.20;99.90;;;;;;4994957;28;19968;-80
2022/09/05 07:12:27;;;;;;;;;;;22.30;99.90;;;;;;4995222;28;19910;-80
2022/09/05 07:14:52;;;;;;;;;;;22.30;99.90;;;;;;4993706;28;19910;-83
2022/09/05 07:17:27;;;;;;;;;;;22.50;99.90;;;;;;5008373;28;19924;-81
2022/09/05 07:19:55;;;;;;;;;;;22.50;99.90;;;;;;5018057;28;20296;-82
2022/09/05 07:22:47;;;;;;;;;;;22.50;99.90;;;;;;5033162;28;19909;-82
2022/09/05 07:25:14;;;;;;;;;;;22.60;99.90;;;;;;5032850;28;19915;-82
2022/09/05 07:27:48;;;;;;;;;;;22.70;99.90;;;;;;5033198;28;19909;-83
2022/09/05 07:30:16;;;;;;;;;;;22.80;99.90;;;;;;5032622;28;20464;-83
2022/09/05 07:32:43;;;;;;;;;;;22.90;99.90;;;;;;5032744;28;19917;-83
2022/09/05 07:35:29;;;;;;;;;;;23.00;99.90;;;;;;5032697;28;20291;-82
2022/09/05 07:38:12;;;;;;;;;;;23.10;99.90;;;;;;5032405;28;19932;-83
2022/09/05 07:40:40;;;;;;;;;;;23.20;99.90;;;;;;5034003;28;19935;-83
2022/09/05 07:43:06;;;;;;;;;;;23.30;99.90;;;;;;5032792;28;20360;-83
2022/09/05 07:45:34;;;;;;;;;;;23.40;99.90;;;;;;5032310;28;19920;-84
2022/09/05 07:47:59;;;;;;;;;;;23.40;99.90;;;;;;5032838;28;19920;-83
2022/09/05 07:50:26;;;;;;;;;;;23.50;99.90;;;;;;5033817;28;19909;-83
2022/09/05 07:52:54;;;;;;;;;;;23.60;99.90;;;;;;5032536;28;19996;-83
2022/09/05 07:55:24;;;;;;;;;;;23.70;99.90;;;;;;5032212;28;19916;-83
2022/09/05 07:57:50;;;;;;;;;;;23.80;99.90;;;;;;5030900;28;19913;-83
2022/09/05 08:00:18;;;;;;;;;;;23.90;99.90;;;;;;5032301;28;19909;-82
2022/09/05 08:02:44;;;;;;;;;;;24.00;99.90;;;;;;5032299;28;19948;-84
2022/09/05 08:05:12;;;;;;;;;;;24.10;99.90;;;;;;5032213;28;19916;-83
2022/09/05 08:07:39;;;;;;;;;;;24.20;99.90;;;;;;5031751;28;19995;-84
2022/09/05 08:10:13;;;;;;;;;;;24.30;99.90;;;;;;5032230;28;19913;-84
2022/09/05 08:12:56;;;;;;;;;;;24.40;99.90;;;;;;5032184;28;19944;-85
2022/09/05 08:15:23;;;;;;;;;;;24.50;99.90;;;;;;5033376;28;19909;-83
2022/09/05 08:18:04;;;;;;;;;;;24.70;99.90;;;;;;5032030;28;20015;-83
2022/09/05 08:20:35;;;;;;;;;;;24.80;99.90;;;;;;5034638;28;20584;-84
2022/09/05 08:23:07;;;;;;;;;;;24.90;99.90;;;;;;5033106;28;19918;-83
2022/09/05 08:25:36;;;;;;;;;;;25.10;99.90;;;;;;5031324;28;19919;-82
2022/09/05 08:28:20;;;;;;;;;;;25.20;99.90;;;;;;5033525;28;19916;-82
2022/09/05 08:30:51;;;;;;;;;;;25.30;99.90;;;;;;5033282;28;19909;-83
2022/09/05 08:33:21;;;;;;;;;;;25.40;99.90;;;;;;5033076;28;20277;-84
2022/09/05 08:35:47;;;;;;;;;;;25.60;99.90;;;;;;5032290;28;19913;-83
2022/09/05 08:38:14;;;;;;;;;;;25.70;99.90;;;;;;5031692;28;20423;-82
2022/09/05 08:40:53;;;;;;;;;;;25.80;99.90;;;;;;5032085;28;19910;-84
2022/09/05 08:43:48;;;;;;;;;;;26.00;99.90;;;;;;5031614;28;19913;-83
2022/09/05 08:46:22;;;;;;;;;;;26.10;99.90;;;;;;5027594;28;19935;-84
2022/09/05 08:49:26;;;;;;;;;;;26.30;99.90;;;;;;5033761;28;20434;-83
2022/09/05 08:51:55;;;;;;;;;;;26.40;99.90;;;;;;5031717;28;20349;-84
2022/09/05 08:54:27;;;;;;;;;;;26.60;99.90;;;;;;5031924;28;19916;-83
2022/09/05 08:56:57;;;;;;;;;;;26.80;99.90;;;;;;5030827;28;19956;-83
2022/09/05 08:59:22;;;;;;;;;;;27.20;99.90;;;;;;5031190;28;20004;-83
2022/09/05 09:01:54;;;;;;;;;;;28.50;99.90;;;;;;5031327;28;19963;-83
2022/09/05 09:04:27;;;;;;;;;;;30.40;99.90;;;;;;5031339;28;19909;-83
2022/09/05 09:07:02;;;;;;;;;;;32.20;98.70;;;;;;5030815;28;19913;-84
2022/09/05 09:09:44;;;;;;;;;;;33.70;93.80;;;;;;5031920;28;19916;-84
2022/09/05 09:12:18;;;;;;;;;;;35.10;86.50;;;;;;5032513;28;19913;-85
2022/09/05 09:14:43;;;;;;;;;;;36.20;72.50;;;;;;5031462;28;19910;-85
2022/09/05 09:17:15;;;;;;;;;;;37.00;66.70;;;;;;5030631;28;20391;-84
2022/09/05 09:19:46;;;;;;;;;;;38.10;62.40;;;;;;5032586;28;19932;-84
2022/09/05 09:22:15;;;;;;;;;;;39.40;57.40;;;;;;5032331;28;19958;-86
2022/09/05 09:24:43;;;;;;;;;;;40.50;50.70;;;;;;5031435;28;19955;-85
2022/09/05 09:27:35;;;;;;;;;;;41.10;47.20;;;;;;5030362;28;19971;-85
2022/09/05 09:30:04;;;;;;;;;;;41.60;45.50;;;;;;5031122;28;19909;-85
2022/09/05 09:32:30;;;;;;;;;;;41.90;43.30;;;;;;5030974;28;20292;-85
2022/09/05 09:35:03;;;;;;;;;;;42.20;42.40;;;;;;5031343;28;19909;-85
2022/09/05 09:37:49;;;;;;;;;;;42.90;41.30;;;;;;5031881;28;19920;-85
2022/09/05 09:40:28;;;;;;;;;;;43.60;39.30;;;;;;5032314;28;19909;-85
2022/09/05 09:43:02;;;;;;;;;;;44.40;37.00;;;;;;5032246;28;19924;-85
2022/09/05 09:45:40;;;;;;;;;;;44.30;35.90;;;;;;5030789;28;19971;-85
2022/09/05 09:48:05;;;;;;;;;;;43.90;35.00;;;;;;5030880;28;19910;-86
2022/09/05 09:50:41;;;;;;;;;;;42.90;35.80;;;;;;5030856;28;19917;-85
2022/09/05 09:53:13;;;;;;;;;;;41.60;36.10;;;;;;5030772;28;19913;-85
2022/09/05 09:55:41;;;;;;;;;;;40.60;37.50;;;;;;5031589;28;20014;-85
2022/09/05 09:58:25;;;;;;;;;;;39.70;37.90;;;;;;5030827;28;20295;-84
2022/09/05 10:01:09;;;;;;;;;;;38.80;37.80;;;;;;5030776;28;19917;-84
2022/09/05 10:03:47;;;;;;;;;;;37.90;37.90;;;;;;5030765;28;20258;-85
2022/09/05 10:06:13;;;;;;;;;;;37.10;37.40;;;;;;5029911;28;20016;-85
2022/09/05 10:08:52;;;;;;;;;;;36.30;39.10;;;;;;5030746;28;20004;-85
2022/09/05 10:11:28;;;;;;;;;;;35.60;39.60;;;;;;5031973;28;19909;-85
2022/09/05 10:14:13;;;;;;;;;;;35.10;40.70;;;;;;5032034;28;19909;-84
2022/09/05 10:16:51;;;;;;;;;;;34.50;41.60;;;;;;5030410;28;19921;-84
2022/09/05 10:19:35;;;;;;;;;;;34.10;42.00;;;;;;5030899;28;20331;-85
2022/09/05 10:22:07;;;;;;;;;;;33.80;42.90;;;;;;5034239;28;19909;-84
2022/09/05 10:24:38;;;;;;;;;;;33.50;42.10;;;;;;5034376;28;19909;-84
2022/09/05 10:27:11;;;;;;;;;;;33.20;41.80;;;;;;5033529;28;19914;-85
2022/09/05 10:29:43;;;;;;;;;;;33.00;41.10;;;;;;5034262;28;19909;-85
2022/09/05 10:32:16;;;;;;;;;;;32.80;41.30;;;;;;5035365;28;19940;-85
2022/09/05 10:34:45;;;;;;;;;;;32.50;42.80;;;;;;5033886;28;19913;-84
2022/09/05 10:37:12;;;;;;;;;;;32.30;41.90;;;;;;5033502;28;19944;-84
2022/09/05 10:39:39;;;;;;;;;;;32.10;44.60;;;;;;5033910;28;19909;-82
2022/09/05 10:42:28;;;;;;;;;;;32.00;44.20;;;;;;5033930;28;19992;-82
2022/09/05 10:44:55;;;;;;;;;;;31.90;44.50;;;;;;5032008;28;19920;-83
2022/09/05 10:47:23;;;;;;;;;;;31.80;43.20;;;;;;5033011;28;19913;-82
2022/09/05 10:49:52;;;;;;;;;;;31.80;43.20;;;;;;5035050;28;19913;-83
2022/09/05 10:52:20;;;;;;;;;;;31.70;43.50;;;;;;5033839;28;19932;-82
2022/09/05 10:54:49;;;;;;;;;;;31.60;43.00;;;;;;5034939;28;19910;-81
2022/09/05 10:57:14;;;;;;;;;;;31.50;43.90;;;;;;5033021;28;20273;-82
2022/09/05 10:59:46;;;;;;;;;;;31.40;44.70;;;;;;5034785;28;19909;-82
2022/09/05 11:02:20;;;;;;;;;;;31.30;45.50;;;;;;5034706;28;19909;-82
2022/09/05 11:04:51;;;;;;;;;;;31.30;44.20;;;;;;5033410;28;19944;-82
2022/09/05 11:07:31;;;;;;;;;;;31.20;45.10;;;;;;5032733;28;19922;-82
2022/09/05 11:10:01;;;;;;;;;;;31.20;44.70;;;;;;5034677;28;19921;-82
2022/09/05 11:12:31;;;;;;;;;;;31.10;44.10;;;;;;5034646;28;19909;-82
2022/09/05 11:14:58;;;;;;;;;;;31.10;44.10;;;;;;5034455;28;19909;-81
2022/09/05 11:17:42;;;;;;;;;;;31.10;44.60;;;;;;5033848;28;19967;-83
2022/09/05 11:20:26;;;;;;;;;;;31.10;44.80;;;;;;5033241;28;20296;-82
2022/09/05 11:22:56;;;;;;;;;;;31.10;44.80;;;;;;5033256;28;19909;-83
2022/09/05 11:25:23;;;;;;;;;;;31.20;44.10;;;;;;5034403;28;20413;-84
2022/09/05 11:27:51;;;;;;;;;;;31.10;42.90;;;;;;5032597;28;19913;-82
2022/09/05 11:30:20;;;;;;;;;;;31.10;44.00;;;;;;5034209;28;19920;-82
2022/09/05 11:32:46;;;;;;;;;;;31.20;44.90;;;;;;5033293;28;19910;-82
2022/09/05 11:35:27;;;;;;;;;;;31.30;43.60;;;;;;5034130;28;20375;-82
2022/09/05 11:38:04;;;;;;;;;;;31.40;45.00;;;;;;5032602;28;19909;-83
2022/09/05 11:40:53;;;;;;;;;;;31.40;44.50;;;;;;5034313;28;19917;-82
2022/09/05 11:43:37;;;;;;;;;;;31.40;43.40;;;;;;5032415;28;20037;-84
2022/09/05 11:46:11;;;;;;;;;;;31.40;43.70;;;;;;5033113;28;19917;-82
2022/09/05 11:48:37;;;;;;;;;;;31.40;43.80;;;;;;5033983;28;20286;-83
2022/09/05 11:51:26;;;;;;;;;;;31.30;43.50;;;;;;5032691;28;19916;-83
2022/09/05 11:53:52;;;;;;;;;;;31.30;42.70;;;;;;5033897;28;19913;-82
2022/09/05 11:56:17;;;;;;;;;;;31.40;41.90;;;;;;5032994;28;19909;-82
2022/09/05 11:58:49;;;;;;;;;;;31.30;40.70;;;;;;5033711;28;19909;-82
2022/09/05 12:01:32;;;;;;;;;;;31.20;41.00;;;;;;5033603;28;19909;-82
2022/09/05 12:04:07;;;;;;;;;;;31.20;41.40;;;;;;5033586;28;20024;-82
2022/09/05 12:06:56;;;;;;;;;;;31.10;41.30;;;;;;5032807;28;19919;-82
2022/09/05 12:09:24;;;;;;;;;;;31.10;40.90;;;;;;5032298;28;19909;-82
2022/09/05 12:12:02;;;;;;;;;;;31.20;41.50;;;;;;5033453;28;19963;-83
2022/09/05 12:14:40;;;;;;;;;;;31.20;41.50;;;;;;5032305;28;19909;-85
2022/09/05 12:17:24;;;;;;;;;;;31.20;40.80;;;;;;5031475;28;19917;-85
2022/09/05 12:19:55;;;;;;;;;;;31.20;42.30;;;;;;5033247;28;19909;-84
2022/09/05 12:22:21;;;;;;;;;;;31.30;43.00;;;;;;5032024;28;19909;-85
2022/09/05 12:24:53;;;;;;;;;;;31.40;41.80;;;;;;5032091;28;19909;-85
2022/09/05 12:27:21;;;;;;;;;;;31.40;41.80;;;;;;5032664;28;20003;-85
2022/09/05 12:29:53;;;;;;;;;;;31.50;41.20;;;;;;5032171;28;19963;-85
2022/09/05 12:32:19;;;;;;;;;;;31.60;41.40;;;;;;5032155;28;19913;-85
2022/09/05 12:34:50;;;;;;;;;;;31.70;42.30;;;;;;5031764;28;19916;-85
2022/09/05 12:37:22;;;;;;;;;;;31.80;41.10;;;;;;5031399;28;20335;-85
2022/09/05 12:40:08;;;;;;;;;;;32.00;41.80;;;;;;5014955;28;20290;-84
2022/09/05 12:42:40;;;;;;;;;;;32.20;40.60;;;;;;5007585;28;19909;-85
2022/09/05 12:45:11;;;;;;;;;;;32.30;40.50;;;;;;5020299;28;20270;-84
2022/09/05 12:47:56;;;;;;;;;;;32.40;40.30;;;;;;5012655;28;19961;-84
2022/09/05 12:50:31;;;;;;;;;;;32.50;40.40;;;;;;5011440;28;19917;-85
2022/09/05 12:53:00;;;;;;;;;;;32.50;40.50;;;;;;5015133;28;19952;-84
2022/09/05 12:55:32;;;;;;;;;;;32.40;40.90;;;;;;5030491;28;19917;-83
2022/09/05 12:57:59;;;;;;;;;;;32.40;41.50;;;;;;5031204;28;19913;-84
2022/09/05 13:00:25;;;;;;;;;;;32.50;41.10;;;;;;5047400;28;19913;-85
2022/09/05 13:03:03;;;;;;;;;;;32.40;41.80;;;;;;5031302;28;19959;-85
2022/09/05 13:05:50;;;;;;;;;;;32.40;42.50;;;;;;5030632;28;19909;-84
2022/09/05 13:08:19;;;;;;;;;;;32.40;41.60;;;;;;5031171;28;19916;-85
2022/09/05 13:10:48;;;;;;;;;;;32.40;41.80;;;;;;5030714;28;19909;-85
2022/09/05 13:13:22;;;;;;;;;;;32.50;42.10;;;;;;5031041;28;19996;-84
2022/09/05 13:15:51;;;;;;;;;;;32.60;41.00;;;;;;5030252;28;19931;-86
2022/09/05 13:18:19;;;;;;;;;;;32.60;40.50;;;;;;5031630;28;20269;-85
2022/09/05 13:20:50;;;;;;;;;;;32.70;41.60;;;;;;5032175;28;19909;-85
2022/09/05 13:23:19;;;;;;;;;;;32.80;40.20;;;;;;5031395;28;19909;-86
2022/09/05 13:25:50;;;;;;;;;;;32.90;41.10;;;;;;5030221;28;19959;-85
2022/09/05 13:28:18;;;;;;;;;;;33.00;41.80;;;;;;5030529;28;19909;-86
2022/09/05 13:30:49;;;;;;;;;;;33.00;40.50;;;;;;5018977;28;20004;-85
2022/09/05 13:33:22;;;;;;;;;;;32.80;38.60;;;;;;5028333;28;19913;-85
2022/09/05 13:36:02;;;;;;;;;;;32.70;41.00;;;;;;5031607;28;19939;-85
2022/09/05 13:38:46;;;;;;;;;;;32.90;42.10;;;;;;5030879;28;19910;-85
2022/09/05 13:41:22;;;;;;;;;;;33.30;42.20;;;;;;5030737;28;19972;-86
2022/09/05 13:43:47;;;;;;;;;;;33.50;40.30;;;;;;5030699;28;19956;-84
2022/09/05 13:46:18;;;;;;;;;;;33.50;42.00;;;;;;5031114;28;20373;-84
2022/09/05 13:48:48;;;;;;;;;;;33.40;39.30;;;;;;5032266;28;20261;-85
2022/09/05 13:51:26;;;;;;;;;;;33.50;38.60;;;;;;5030830;28;19944;-85
2022/09/05 13:54:15;;;;;;;;;;;33.60;40.20;;;;;;5030721;28;20020;-85
2022/09/05 13:57:02;;;;;;;;;;;33.50;39.50;;;;;;5033509;28;19916;-85
2022/09/05 13:59:31;;;;;;;;;;;33.50;38.50;;;;;;5034368;28;19916;-85
2022/09/05 14:01:56;;;;;;;;;;;33.50;38.70;;;;;;5034417;28;19913;-85
2022/09/05 14:04:25;;;;;;;;;;;33.50;39.30;;;;;;5036384;28;20326;-85
2022/09/05 14:07:04;;;;;;;;;;;33.50;39.40;;;;;;5033769;28;20355;-85
2022/09/05 14:09:33;;;;;;;;;;;33.50;39.40;;;;;;5036136;28;19952;-84
2022/09/05 14:12:04;;;;;;;;;;;33.40;40.00;;;;;;5034455;28;19913;-85
2022/09/05 14:14:37;;;;;;;;;;;33.50;38.20;;;;;;5034780;28;19963;-85
2022/09/05 14:17:04;;;;;;;;;;;33.50;40.20;;;;;;5033624;28;19917;-85
2022/09/05 14:22:35;;;;;;;;;;;33.30;39.50;;;;;;5035611;28;19932;-85
2022/09/05 14:25:03;;;;;;;;;;;33.20;41.10;;;;;;5034235;28;19909;-85
2022/09/05 14:27:30;;;;;;;;;;;33.40;42.20;;;;;;5033350;28;19963;-86
2022/09/05 14:29:56;;;;;;;;;;;33.70;42.10;;;;;;5034234;28;19937;-84
2022/09/05 14:32:21;;;;;;;;;;;34.00;40.30;;;;;;5033689;28;19956;-85
2022/09/05 14:34:57;;;;;;;;;;;34.90;38.60;;;;;;5033697;28;19962;-86
2022/09/05 14:37:42;;;;;;;;;;;35.80;39.50;;;;;;5034531;28;19909;-85
2022/09/05 14:40:10;;;;;;;;;;;37.50;38.80;;;;;;5033612;28;19909;-85
2022/09/05 14:42:57;;;;;;;;;;;37.60;35.00;;;;;;5033846;28;19913;-86
2022/09/05 14:45:29;;;;;;;;;;;37.20;35.10;;;;;;5022865;28;19913;-86
2022/09/05 14:48:03;;;;;;;;;;;37.00;36.10;;;;;;5033989;28;19913;-83
2022/09/05 14:50:35;;;;;;;;;;;36.80;36.20;;;;;;5035015;28;19975;-83
2022/09/05 14:53:00;;;;;;;;;;;36.70;38.10;;;;;;5036368;28;19909;-82
2022/09/05 14:55:26;;;;;;;;;;;36.50;37.10;;;;;;5036446;28;19959;-83
2022/09/05 14:57:52;;;;;;;;;;;36.50;35.60;;;;;;5034793;28;19909;-83